Terminal Aerodrome Forecast
Issued by NWS

Current Version | Previous Version | Graphics & Text | Print | Product List | Glossary On
Versions: 1 2 3 4 5 6 7 8 9 10 11 12 13 14 15 16
000
FTUS41 KILN 201700
TAFLUK
TAF
KLUK 201731Z 2018/2118 00000KT P6SM OVC020
     FM210800 00000KT P6SM BKN025
      TEMPO 2115/2118 SCT025=

USA.gov is the U.S. government's official web portal to all federal, state and local government web resources and services.